Time;durP1;ratioP1;P1;durP2;ratioP2;P2;SDS_P1;SDS_P2;PMS_P1;PMS_P2;Temp;Humidity;BMP_temperature;BMP_pressure;BME280_temperature;BME280_humidity;BME280_pressure;Samples;Min_cycle;Max_cycle;Signal;HPM_P1;HPM_P2
2022/07/06 00:00:44;;;;;;;2.53;1.17;;;19.20;96.80;;;;;;5073400;28;20447;-60
2022/07/06 00:03:11;;;;;;;3.53;0.90;;;19.00;97.20;;;;;;5073810;28;20447;-61
2022/07/06 00:05:37;;;;;;;2.57;1.00;;;19.00;97.70;;;;;;5073565;28;20865;-61
2022/07/06 00:08:05;;;;;;;1.60;1.20;;;18.90;98.20;;;;;;5073464;28;20447;-60
2022/07/06 00:10:32;;;;;;;2.70;1.07;;;18.90;98.60;;;;;;5073404;28;20504;-61
2022/07/06 00:12:59;;;;;;;4.60;1.37;;;18.90;99.00;;;;;;5073277;28;20538;-60
2022/07/06 00:15:25;;;;;;;3.00;1.20;;;18.70;99.50;;;;;;5073086;28;20475;-61
2022/07/06 00:17:52;;;;;;;2.83;1.20;;;18.50;99.90;;;;;;5073354;28;20448;-60
2022/07/06 00:20:19;;;;;;;2.20;1.00;;;18.60;99.90;;;;;;5073307;28;20447;-61
2022/07/06 00:22:45;;;;;;;1.13;0.90;;;18.70;99.90;;;;;;5073239;28;20453;-61
2022/07/06 00:25:11;;;;;;;1.13;1.03;;;18.70;99.90;;;;;;5073205;28;20447;-61
2022/07/06 00:27:39;;;;;;;1.77;1.40;;;18.70;99.90;;;;;;5073200;28;20443;-61
2022/07/06 00:30:07;;;;;;;2.07;1.27;;;18.70;99.90;;;;;;5072974;28;20958;-61
2022/07/06 00:32:34;;;;;;;1.40;1.10;;;18.60;99.90;;;;;;5073177;28;20458;-60
2022/07/06 00:35:00;;;;;;;2.90;1.47;;;18.60;99.90;;;;;;5073126;28;20781;-61
2022/07/06 00:37:27;;;;;;;3.40;0.97;;;18.50;99.90;;;;;;5072985;28;20493;-60
2022/07/06 00:39:53;;;;;;;1.13;0.83;;;18.40;99.90;;;;;;5073064;28;20479;-61
2022/07/06 00:42:20;;;;;;;2.57;0.97;;;18.40;99.90;;;;;;5072923;28;20447;-61
2022/07/06 00:44:47;;;;;;;3.83;1.07;;;18.50;99.90;;;;;;5072815;28;20779;-61
2022/07/06 00:47:14;;;;;;;1.63;0.90;;;18.40;99.90;;;;;;5073095;28;20552;-61
2022/07/06 00:52:25;;;;;;;3.63;0.90;;;18.30;99.90;;;;;;5072897;28;20438;-60
2022/07/06 00:54:52;;;;;;;1.63;1.03;;;18.40;99.90;;;;;;5072823;28;20454;-60
2022/07/06 00:57:19;;;;;;;4.07;1.20;;;18.40;99.90;;;;;;5072566;28;20487;-60
2022/07/06 00:59:45;;;;;;;2.97;0.97;;;18.40;99.90;;;;;;5072651;28;20451;-61
2022/07/06 01:02:13;;;;;;;1.70;1.17;;;18.30;99.90;;;;;;5072843;28;20447;-61
2022/07/06 01:04:39;;;;;;;2.23;0.90;;;18.30;99.90;;;;;;5074968;28;20451;-60
2022/07/06 01:07:06;;;;;;;1.03;0.93;;;18.20;99.90;;;;;;5076880;28;20451;-60
2022/07/06 01:09:33;;;;;;;1.43;0.83;;;18.20;99.90;;;;;;5076893;28;20482;-61
2022/07/06 01:11:59;;;;;;;1.47;1.10;;;18.20;99.90;;;;;;5076684;28;20849;-60
2022/07/06 01:14:26;;;;;;;1.67;1.10;;;18.00;99.90;;;;;;5076767;28;20447;-61
2022/07/06 01:16:52;;;;;;;2.50;1.00;;;18.00;99.90;;;;;;5076608;28;20528;-61
2022/07/06 01:19:20;;;;;;;1.33;1.00;;;18.10;99.90;;;;;;5076680;28;20447;-61
2022/07/06 01:21:48;;;;;;;2.80;1.10;;;18.00;99.90;;;;;;5076554;28;20447;-61
2022/07/06 01:24:14;;;;;;;1.80;1.10;;;18.20;99.90;;;;;;5076960;28;20833;-61
2022/07/06 01:26:41;;;;;;;2.50;1.13;;;18.30;99.90;;;;;;5076628;28;20534;-60
2022/07/06 01:29:07;;;;;;;3.50;1.20;;;18.30;99.90;;;;;;5076297;28;20443;-61
2022/07/06 01:31:34;;;;;;;4.07;1.03;;;18.50;99.90;;;;;;5076453;28;20443;-61
2022/07/06 01:34:01;;;;;;;2.20;1.13;;;18.60;99.90;;;;;;5076306;28;20446;-61
2022/07/06 01:36:27;;;;;;;3.83;1.20;;;18.40;99.90;;;;;;5076224;28;20526;-61
2022/07/06 01:38:58;;;;;;;2.67;1.10;;;18.30;99.90;;;;;;5076088;28;20962;-61
2022/07/06 01:41:24;;;;;;;8.83;0.93;;;18.00;99.90;;;;;;5076270;28;20447;-61
2022/07/06 01:43:51;;;;;;;1.73;1.07;;;18.00;99.90;;;;;;5076194;28;20447;-61
2022/07/06 01:46:19;;;;;;;1.67;1.10;;;17.90;99.90;;;;;;5076093;28;20889;-60
2022/07/06 01:48:45;;;;;;;4.07;1.53;;;17.90;99.90;;;;;;5075978;28;20490;-60
2022/07/06 01:51:12;;;;;;;3.27;0.93;;;17.90;99.90;;;;;;5075961;28;20453;-61
2022/07/06 01:53:39;;;;;;;1.40;1.00;;;18.10;99.90;;;;;;5075774;28;20451;-60
2022/07/06 01:56:08;;;;;;;1.07;0.97;;;18.20;99.90;;;;;;5075550;28;20475;-61
2022/07/06 01:58:34;;;;;;;1.87;0.97;;;18.30;99.90;;;;;;5074774;28;20934;-61
2022/07/06 02:01:01;;;;;;;2.10;0.90;;;18.30;99.90;;;;;;5074662;28;20550;-61
2022/07/06 02:03:28;;;;;;;1.23;0.90;;;18.40;99.90;;;;;;5074501;28;20569;-61
2022/07/06 02:05:54;;;;;;;2.57;1.10;;;18.40;99.90;;;;;;5074506;28;20451;-61
2022/07/06 02:08:21;;;;;;;2.03;1.00;;;18.50;99.90;;;;;;5074661;28;20452;-61
2022/07/06 02:10:47;;;;;;;1.83;1.10;;;18.50;99.90;;;;;;5074599;28;21021;-61
2022/07/06 02:13:15;;;;;;;1.30;0.90;;;18.60;99.90;;;;;;5074369;28;20930;-61
2022/07/06 02:15:41;;;;;;;4.20;1.20;;;18.60;99.90;;;;;;5073919;28;20458;-61
2022/07/06 02:18:08;;;;;;;1.77;0.90;;;18.70;99.90;;;;;;5074354;28;20462;-61
2022/07/06 02:20:34;;;;;;;0.90;0.80;;;18.80;99.90;;;;;;5074199;28;20453;-61
2022/07/06 02:23:01;;;;;;;0.87;0.87;;;18.90;99.90;;;;;;5074383;28;20447;-61
2022/07/06 02:25:28;;;;;;;2.40;1.50;;;18.90;99.90;;;;;;5074169;28;20451;-61
2022/07/06 02:27:54;;;;;;;2.70;1.10;;;18.90;99.90;;;;;;5074232;28;20814;-61
2022/07/06 02:30:22;;;;;;;2.47;0.90;;;19.00;99.90;;;;;;5074191;28;20426;-61
2022/07/06 02:32:48;;;;;;;1.37;0.90;;;18.90;99.90;;;;;;5074085;28;20916;-61
2022/07/06 02:35:15;;;;;;;2.30;1.10;;;18.90;99.90;;;;;;5074036;28;20489;-61
2022/07/06 02:37:41;;;;;;;2.70;1.10;;;18.80;99.90;;;;;;5074077;28;20483;-61
2022/07/06 02:40:09;;;;;;;6.83;1.20;;;18.70;99.90;;;;;;5074165;28;20934;-61
2022/07/06 02:42:36;;;;;;;3.23;1.00;;;18.70;99.90;;;;;;5074011;28;20458;-61
2022/07/06 02:45:03;;;;;;;4.70;1.20;;;18.70;99.90;;;;;;5073942;28;20448;-61
2022/07/06 02:47:30;;;;;;;1.83;1.27;;;18.70;99.90;;;;;;5073851;28;20805;-61
2022/07/06 02:49:57;;;;;;;4.70;1.10;;;18.80;99.90;;;;;;5073789;28;20451;-61
2022/07/06 02:52:23;;;;;;;2.50;1.00;;;18.70;99.90;;;;;;5073897;28;20428;-61
2022/07/06 02:54:50;;;;;;;4.07;2.23;;;18.70;99.90;;;;;;5073849;28;20448;-61
2022/07/06 02:57:16;;;;;;;1.50;1.00;;;18.60;99.90;;;;;;5040766;28;953008;-61
2022/07/06 02:59:43;;;;;;;1.53;1.10;;;18.60;99.90;;;;;;5074708;28;20976;-60
2022/07/06 03:02:10;;;;;;;3.97;1.30;;;18.50;99.90;;;;;;5074708;28;20447;-60
2022/07/06 03:04:38;;;;;;;1.60;1.10;;;18.30;99.90;;;;;;5074893;28;20450;-61
2022/07/06 03:07:05;;;;;;;2.57;1.43;;;18.30;99.90;;;;;;5074518;28;20447;-61
2022/07/06 03:09:31;;;;;;;4.07;2.63;;;18.20;99.90;;;;;;5074422;28;20456;-61
2022/07/06 03:11:58;;;;;;;2.50;1.20;;;18.20;99.90;;;;;;5074492;28;20473;-61
2022/07/06 03:14:25;;;;;;;2.07;1.43;;;18.30;99.90;;;;;;5074422;28;20454;-61
2022/07/06 03:16:52;;;;;;;1.37;1.27;;;18.30;99.90;;;;;;5074132;28;20471;-61
2022/07/06 03:19:18;;;;;;;3.73;1.10;;;18.30;99.90;;;;;;5074430;28;20458;-61
2022/07/06 03:21:46;;;;;;;2.10;0.90;;;18.20;99.90;;;;;;5074309;28;20545;-61
2022/07/06 03:24:13;;;;;;;3.17;1.30;;;18.00;99.90;;;;;;5074199;28;20542;-60
2022/07/06 03:26:39;;;;;;;3.70;1.47;;;18.00;99.90;;;;;;5073323;28;20462;-61
2022/07/06 03:29:06;;;;;;;1.50;1.10;;;18.00;99.90;;;;;;5074129;28;20448;-60
2022/07/06 03:31:32;;;;;;;4.03;1.30;;;17.80;99.90;;;;;;5073895;28;20453;-61
2022/07/06 03:33:59;;;;;;;3.50;1.50;;;17.90;99.90;;;;;;5073836;28;20965;-61
2022/07/06 03:36:25;;;;;;;2.63;1.83;;;17.90;99.90;;;;;;5073913;28;20477;-61
2022/07/06 03:38:53;;;;;;;2.13;1.60;;;17.80;99.90;;;;;;5073960;28;20447;-61
2022/07/06 03:41:19;;;;;;;2.43;1.60;;;17.80;99.90;;;;;;5073875;28;20454;-61
2022/07/06 03:43:46;;;;;;;3.43;1.70;;;17.90;99.90;;;;;;5073774;28;20451;-60
2022/07/06 03:46:12;;;;;;;1.63;1.40;;;18.00;99.90;;;;;;5073528;28;20454;-61
2022/07/06 03:48:39;;;;;;;2.80;1.60;;;18.00;99.90;;;;;;5073859;28;20460;-61
2022/07/06 03:51:06;;;;;;;4.00;1.87;;;18.00;99.90;;;;;;5073707;28;20483;-60
2022/07/06 03:53:32;;;;;;;4.17;1.67;;;18.00;99.90;;;;;;5073996;28;20447;-60
2022/07/06 03:58:44;;;;;;;3.80;1.47;;;17.90;99.90;;;;;;5073459;28;20550;-61
2022/07/06 04:01:10;;;;;;;2.80;1.80;;;17.90;99.90;;;;;;5073552;28;20456;-61
2022/07/06 04:03:37;;;;;;;8.40;1.97;;;17.90;99.90;;;;;;5073511;28;20447;-60
2022/07/06 04:06:04;;;;;;;6.60;2.50;;;17.70;99.90;;;;;;5073426;28;20455;-60
2022/07/06 04:08:30;;;;;;;2.10;1.50;;;17.60;99.90;;;;;;5073404;28;20792;-60
2022/07/06 04:10:57;;;;;;;2.73;2.13;;;17.70;99.90;;;;;;5073159;28;20500;-61
2022/07/06 04:13:25;;;;;;;2.10;1.67;;;17.70;99.90;;;;;;5073453;28;20443;-61
2022/07/06 04:15:51;;;;;;;2.50;1.83;;;17.70;99.90;;;;;;5073353;28;20454;-61
2022/07/06 04:18:18;;;;;;;2.93;1.70;;;17.60;99.90;;;;;;5073028;28;21005;-61
2022/07/06 04:20:44;;;;;;;4.63;2.10;;;17.70;99.90;;;;;;5073127;28;20548;-60
2022/07/06 04:23:11;;;;;;;4.47;2.13;;;17.80;99.90;;;;;;5073344;28;20954;-60
2022/07/06 04:25:37;;;;;;;2.20;1.77;;;17.80;99.90;;;;;;5072951;28;20447;-61
2022/07/06 04:28:04;;;;;;;3.53;2.40;;;17.80;99.90;;;;;;5073173;28;20447;-61
2022/07/06 04:30:32;;;;;;;2.87;2.03;;;17.90;99.90;;;;;;5073112;28;20448;-60
2022/07/06 04:32:59;;;;;;;4.93;2.50;;;18.00;99.90;;;;;;5073074;28;20454;-60
2022/07/06 04:35:25;;;;;;;3.43;1.77;;;18.00;99.90;;;;;;5072880;28;20805;-60
2022/07/06 04:37:52;;;;;;;5.13;3.30;;;18.20;99.90;;;;;;5072800;28;20479;-60
2022/07/06 04:40:18;;;;;;;3.43;2.10;;;18.20;99.90;;;;;;5072901;28;20465;-60
2022/07/06 04:42:45;;;;;;;3.20;2.20;;;18.30;99.90;;;;;;5073070;28;20452;-61
2022/07/06 04:45:11;;;;;;;6.30;2.30;;;18.50;99.90;;;;;;5072947;28;20444;-61
2022/07/06 04:47:39;;;;;;;3.37;2.30;;;18.60;99.90;;;;;;5072857;28;20450;-61
2022/07/06 04:50:07;;;;;;;3.17;1.50;;;18.60;99.90;;;;;;5072864;28;20542;-61
2022/07/06 04:52:33;;;;;;;2.80;2.00;;;18.70;99.90;;;;;;5072692;28;20443;-61
2022/07/06 04:55:00;;;;;;;3.10;1.80;;;18.70;99.90;;;;;;5072611;28;20546;-60
2022/07/06 04:57:29;;;;;;;8.63;3.40;;;18.60;99.90;;;;;;5072396;28;20541;-61
2022/07/06 04:59:56;;;;;;;3.30;1.80;;;18.60;99.90;;;;;;5072445;28;20942;-60
2022/07/06 05:02:22;;;;;;;2.23;1.30;;;18.60;99.90;;;;;;5072410;28;20943;-60
2022/07/06 05:04:50;;;;;;;2.07;1.43;;;18.70;99.90;;;;;;5072553;28;20452;-61
2022/07/06 05:07:16;;;;;;;1.63;1.30;;;18.70;99.90;;;;;;5072575;28;20487;-60
2022/07/06 05:09:43;;;;;;;2.60;1.10;;;18.60;99.90;;;;;;5072746;28;20444;-60
2022/07/06 05:12:10;;;;;;;2.90;1.43;;;18.60;99.90;;;;;;5072728;28;20447;-60
2022/07/06 05:14:38;;;;;;;4.10;1.27;;;18.70;99.90;;;;;;5072328;28;20451;-60
2022/07/06 05:17:04;;;;;;;3.00;1.90;;;18.80;99.90;;;;;;5072543;28;20475;-60
2022/07/06 05:19:31;;;;;;;2.13;1.10;;;18.80;99.90;;;;;;5072497;28;20634;-60
2022/07/06 05:21:58;;;;;;;3.23;1.50;;;18.90;99.90;;;;;;5072256;28;20454;-60
2022/07/06 05:24:25;;;;;;;3.63;1.47;;;19.00;99.90;;;;;;5072620;28;20447;-61
2022/07/06 05:26:51;;;;;;;3.17;1.37;;;19.00;99.90;;;;;;5072600;28;20784;-60
2022/07/06 05:29:18;;;;;;;3.67;1.27;;;19.00;99.90;;;;;;5072454;28;20558;-60
2022/07/06 05:31:44;;;;;;;2.30;1.00;;;19.00;99.90;;;;;;5072337;28;20451;-60
2022/07/06 05:34:11;;;;;;;3.40;1.20;;;19.20;99.90;;;;;;5072140;28;20447;-60
2022/07/06 05:36:37;;;;;;;2.57;1.47;;;19.40;99.90;;;;;;5072324;28;20447;-61
2022/07/06 05:39:05;;;;;;;2.10;1.20;;;19.60;99.90;;;;;;5072020;28;20989;-61
2022/07/06 05:41:32;;;;;;;2.97;1.37;;;19.70;99.90;;;;;;5072336;28;20546;-60
2022/07/06 05:43:58;;;;;;;1.70;1.20;;;19.60;99.90;;;;;;5072270;28;20457;-60
2022/07/06 05:46:25;;;;;;;6.13;1.23;;;19.60;99.90;;;;;;5072003;28;20501;-60
2022/07/06 05:51:35;;;;;;;4.53;1.20;;;19.60;99.90;;;;;;5075506;28;20481;-61
2022/07/06 05:54:02;;;;;;;2.47;1.27;;;19.70;99.90;;;;;;5075871;28;20810;-61
2022/07/06 05:56:29;;;;;;;3.63;1.00;;;19.80;99.90;;;;;;5075591;28;20493;-60
2022/07/06 05:58:56;;;;;;;2.00;1.30;;;19.90;99.90;;;;;;5075586;28;20482;-60
2022/07/06 06:01:22;;;;;;;4.57;1.53;;;19.90;99.90;;;;;;5075375;28;20539;-60
2022/07/06 06:03:49;;;;;;;2.60;1.40;;;19.80;99.90;;;;;;5075723;28;20443;-60
2022/07/06 06:06:15;;;;;;;2.70;1.60;;;19.80;99.90;;;;;;5075659;28;20447;-61
2022/07/06 06:08:42;;;;;;;2.20;1.20;;;20.00;99.90;;;;;;5075645;28;20508;-61
2022/07/06 06:11:08;;;;;;;3.63;1.23;;;20.10;99.90;;;;;;5075608;28;20447;-60
2022/07/06 06:13:36;;;;;;;1.57;1.20;;;20.20;99.90;;;;;;5075355;28;20447;-61
2022/07/06 06:16:03;;;;;;;4.30;1.70;;;20.30;99.90;;;;;;5075226;28;20450;-61
2022/07/06 06:18:29;;;;;;;3.10;1.10;;;20.30;99.90;;;;;;5075408;28;20482;-61
2022/07/06 06:20:56;;;;;;;2.93;1.20;;;20.30;99.90;;;;;;5075184;28;20966;-61
2022/07/06 06:23:22;;;;;;;3.37;1.37;;;20.30;99.90;;;;;;5075265;28;20938;-61
2022/07/06 06:25:49;;;;;;;2.47;1.23;;;20.20;99.90;;;;;;5074746;28;20458;-60
2022/07/06 06:28:15;;;;;;;2.60;1.10;;;20.20;99.90;;;;;;5075159;28;20455;-61
2022/07/06 06:30:43;;;;;;;2.20;1.10;;;20.20;99.90;;;;;;5075134;28;20917;-61
2022/07/06 06:33:12;;;;;;;1.50;1.20;;;20.40;99.90;;;;;;5075212;28;20477;-61
2022/07/06 06:35:42;;;;;;;6.33;1.10;;;20.40;99.90;;;;;;5075097;28;20447;-61
2022/07/06 06:38:09;;;;;;;1.60;0.90;;;20.30;99.90;;;;;;5075052;28;20463;-61
2022/07/06 06:40:35;;;;;;;1.47;0.80;;;20.30;99.90;;;;;;5074905;28;20539;-61
2022/07/06 06:43:02;;;;;;;1.60;1.30;;;20.30;99.90;;;;;;5073744;28;20539;-61
2022/07/06 06:45:28;;;;;;;2.80;1.10;;;20.20;99.90;;;;;;5074711;28;20542;-61
2022/07/06 06:47:56;;;;;;;1.30;1.00;;;20.30;99.90;;;;;;5074603;28;20489;-61
2022/07/06 06:50:23;;;;;;;3.10;1.00;;;20.40;99.90;;;;;;5072931;28;20554;-61
2022/07/06 06:52:50;;;;;;;1.43;1.00;;;20.50;99.90;;;;;;5074156;28;20448;-61
2022/07/06 06:55:17;;;;;;;2.30;1.00;;;20.50;99.90;;;;;;5074384;28;21017;-60
2022/07/06 06:57:43;;;;;;;5.30;1.80;;;20.40;99.90;;;;;;5074214;28;20497;-61
2022/07/06 07:00:11;;;;;;;2.17;1.47;;;20.50;99.90;;;;;;5074569;28;20447;-60
2022/07/06 07:02:38;;;;;;;5.17;1.17;;;20.60;99.90;;;;;;5079115;28;20447;-60
2022/07/06 07:05:07;;;;;;;1.87;1.40;;;20.50;99.90;;;;;;5074263;28;20939;-60
2022/07/06 07:07:34;;;;;;;5.60;1.30;;;20.60;99.90;;;;;;5074472;28;20456;-61
2022/07/06 07:10:00;;;;;;;3.83;1.13;;;20.70;99.90;;;;;;5074268;28;20447;-61
2022/07/06 07:12:27;;;;;;;1.23;1.00;;;20.90;99.90;;;;;;5074212;28;20454;-60
2022/07/06 07:14:53;;;;;;;3.53;1.20;;;20.90;99.90;;;;;;5074398;28;20454;-60
2022/07/06 07:17:20;;;;;;;2.20;1.07;;;20.90;99.90;;;;;;5074210;28;20458;-60
2022/07/06 07:19:46;;;;;;;1.37;0.90;;;21.00;99.90;;;;;;5074295;28;20451;-59
2022/07/06 07:22:14;;;;;;;1.13;1.00;;;21.00;99.90;;;;;;5074151;28;20538;-60
2022/07/06 07:24:41;;;;;;;4.30;1.30;;;20.80;99.90;;;;;;5073905;28;20534;-59
2022/07/06 07:27:07;;;;;;;2.50;0.83;;;20.70;99.90;;;;;;5073919;28;20539;-59
2022/07/06 07:29:34;;;;;;;2.47;1.33;;;20.90;99.90;;;;;;5074176;28;20447;-60
2022/07/06 07:32:00;;;;;;;4.53;1.20;;;21.10;99.90;;;;;;5073948;28;20806;-59
2022/07/06 07:34:27;;;;;;;3.63;1.40;;;21.20;99.90;;;;;;5073805;28;20554;-59
2022/07/06 07:36:53;;;;;;;2.20;1.07;;;21.30;99.90;;;;;;5073653;28;20451;-60
2022/07/06 07:39:21;;;;;;;2.50;1.30;;;21.20;99.90;;;;;;5073597;28;20483;-60
2022/07/06 07:41:50;;;;;;;3.43;1.20;;;21.00;99.90;;;;;;5073826;28;20861;-59
2022/07/06 07:44:16;;;;;;;3.87;1.33;;;20.90;99.90;;;;;;5073780;28;20538;-59
2022/07/06 07:46:43;;;;;;;1.77;0.87;;;21.10;99.90;;;;;;5073659;28;20534;-59
2022/07/06 07:49:09;;;;;;;2.43;1.20;;;21.20;99.90;;;;;;5073564;28;20453;-60
2022/07/06 07:51:36;;;;;;;3.83;1.33;;;21.60;99.90;;;;;;5073359;28;20447;-59
2022/07/06 07:54:02;;;;;;;2.50;1.30;;;21.90;99.90;;;;;;5073367;28;20449;-59
2022/07/06 07:56:30;;;;;;;2.43;1.10;;;22.20;99.90;;;;;;5073313;28;20472;-59
2022/07/06 07:58:56;;;;;;;2.20;1.20;;;22.30;99.90;;;;;;5072859;28;20478;-60
2022/07/06 08:01:23;;;;;;;2.00;1.20;;;22.10;99.90;;;;;;5073238;28;20451;-60
2022/07/06 08:03:49;;;;;;;1.43;1.23;;;21.80;99.90;;;;;;5068293;28;20459;-60
2022/07/06 08:06:16;;;;;;;2.37;1.20;;;21.50;99.90;;;;;;5071757;28;20482;-61
2022/07/06 08:08:42;;;;;;;3.97;1.37;;;21.60;99.90;;;;;;5071396;28;20428;-60
2022/07/06 08:11:09;;;;;;;2.13;1.10;;;21.80;99.90;;;;;;5071708;28;20439;-60
2022/07/06 08:13:37;;;;;;;4.70;1.50;;;22.00;99.90;;;;;;5071647;28;20452;-60
2022/07/06 08:16:04;;;;;;;3.10;1.20;;;22.00;99.90;;;;;;5068750;28;20439;-60
2022/07/06 08:18:30;;;;;;;3.57;1.30;;;22.00;99.90;;;;;;5065282;28;20475;-60
2022/07/06 08:20:57;;;;;;;2.20;1.00;;;22.20;99.90;;;;;;5072976;28;20454;-61
2022/07/06 08:23:24;;;;;;;3.30;1.20;;;22.20;99.90;;;;;;5073144;28;20447;-60
2022/07/06 08:25:50;;;;;;;2.20;1.20;;;21.90;99.90;;;;;;5073016;28;20542;-60
2022/07/06 08:28:17;;;;;;;3.77;1.50;;;21.70;99.90;;;;;;5072874;28;20960;-60
2022/07/06 08:30:45;;;;;;;4.60;1.20;;;21.90;99.90;;;;;;5072922;28;20451;-60
2022/07/06 08:33:11;;;;;;;3.87;1.10;;;22.10;99.90;;;;;;5072958;28;20451;-60
2022/07/06 08:35:38;;;;;;;2.07;1.00;;;22.00;99.90;;;;;;5072711;28;20447;-60
2022/07/06 08:38:04;;;;;;;1.77;1.10;;;22.00;99.90;;;;;;5072911;28;20829;-60
2022/07/06 08:40:34;;;;;;;4.80;1.10;;;21.80;99.90;;;;;;5072907;28;20483;-60
2022/07/06 08:43:02;;;;;;;1.20;1.10;;;21.80;99.90;;;;;;5068610;28;20502;-61
2022/07/06 08:45:29;;;;;;;2.90;0.90;;;21.90;99.90;;;;;;5072538;28;20443;-60
2022/07/06 08:48:03;;;;;;;2.40;0.90;;;21.90;99.90;;;;;;5072485;28;20474;-59
2022/07/06 08:50:30;;;;;;;2.10;1.07;;;22.10;99.90;;;;;;5072773;28;20446;-65
2022/07/06 08:52:57;;;;;;;4.27;1.00;;;22.40;99.80;;;;;;5062679;28;20459;-63
2022/07/06 08:55:25;;;;;;;2.20;0.93;;;22.50;98.90;;;;;;5066896;28;20455;-63
2022/07/06 08:57:52;;;;;;;2.57;0.90;;;22.50;97.60;;;;;;5053041;28;20476;-65
2022/07/06 09:00:19;;;;;;;1.23;1.00;;;22.40;99.60;;;;;;5052480;28;20807;-65
2022/07/06 09:02:45;;;;;;;1.33;1.00;;;22.60;99.10;;;;;;5052290;28;20451;-59
2022/07/06 09:05:16;;;;;;;1.50;0.80;;;22.80;99.00;;;;;;5052473;28;20448;-70
2022/07/06 09:07:43;;;;;;;1.90;0.90;;;22.90;99.50;;;;;;5056397;28;20454;-61
2022/07/06 09:10:10;;;;;;;1.33;0.83;;;23.00;97.10;;;;;;5059816;28;20451;-60
2022/07/06 09:12:36;;;;;;;2.93;0.70;;;23.00;96.90;;;;;;5052969;28;20444;-61
2022/07/06 09:15:03;;;;;;;6.87;0.80;;;22.80;97.30;;;;;;5055716;28;20447;-60
2022/07/06 09:17:30;;;;;;;1.60;0.70;;;22.60;96.10;;;;;;5072294;28;20443;-60
2022/07/06 09:19:57;;;;;;;1.47;0.90;;;22.40;96.50;;;;;;5072335;28;20479;-61
2022/07/06 09:22:31;;;;;;;1.03;0.80;;;22.30;96.80;;;;;;5072003;28;20452;-60
2022/07/06 09:25:04;;;;;;;1.47;0.90;;;22.20;97.20;;;;;;5056295;28;20815;-60
2022/07/06 09:27:30;;;;;;;1.40;0.83;;;22.10;97.60;;;;;;5066272;28;20458;-61
2022/07/06 09:30:01;;;;;;;1.30;0.60;;;21.90;97.10;;;;;;5063089;28;20979;-60
2022/07/06 09:32:27;;;;;;;0.83;0.80;;;21.90;96.70;;;;;;5056272;28;20452;-62
2022/07/06 09:34:55;;;;;;;1.83;0.90;;;21.80;95.20;;;;;;5062056;28;20451;-62
2022/07/06 09:37:23;;;;;;;2.17;0.70;;;21.80;95.90;;;;;;5076063;28;20470;-62
2022/07/06 09:39:51;;;;;;;0.97;0.87;;;21.80;95.50;;;;;;5075874;28;20854;-63
2022/07/06 09:42:17;;;;;;;1.43;0.90;;;21.80;95.80;;;;;;5075523;28;20551;-63
2022/07/06 09:44:44;;;;;;;1.20;0.73;;;21.80;95.80;;;;;;5057325;28;20460;-62
2022/07/06 09:47:12;;;;;;;1.43;0.90;;;21.70;94.70;;;;;;5065628;28;20801;-64
2022/07/06 09:49:40;;;;;;;1.30;0.80;;;21.50;94.20;;;;;;5055268;28;20470;-63
2022/07/06 09:52:09;;;;;;;3.53;0.90;;;21.30;93.70;;;;;;5058786;28;20467;-61
2022/07/06 09:54:36;;;;;;;1.83;0.80;;;21.10;93.60;;;;;;5055193;28;20814;-61
2022/07/06 09:57:05;;;;;;;1.20;0.97;;;21.10;92.50;;;;;;5063792;28;20567;-63
2022/07/06 09:59:34;;;;;;;1.93;0.77;;;21.10;92.20;;;;;;5061916;28;20486;-61
2022/07/06 10:02:03;;;;;;;3.03;0.67;;;21.00;91.30;;;;;;5066462;28;20515;-59
2022/07/06 10:04:30;;;;;;;1.90;0.70;;;21.10;90.60;;;;;;5067898;28;20455;-60
2022/07/06 10:06:58;;;;;;;1.97;0.93;;;21.10;91.40;;;;;;5071851;28;20926;-59
2022/07/06 10:09:26;;;;;;;1.20;0.90;;;21.30;91.30;;;;;;5074299;28;20898;-59
2022/07/06 10:11:55;;;;;;;1.93;0.80;;;21.40;91.60;;;;;;5074632;28;20818;-59
2022/07/06 10:14:24;;;;;;;2.10;0.60;;;21.50;92.80;;;;;;5071663;28;20447;-61
2022/07/06 10:16:51;;;;;;;1.17;0.87;;;21.60;92.90;;;;;;5061329;28;20468;-64
2022/07/06 10:19:19;;;;;;;0.90;0.80;;;21.70;93.30;;;;;;5071057;28;20501;-64
2022/07/06 10:21:46;;;;;;;1.03;0.70;;;21.90;93.80;;;;;;5067372;28;20460;-63
2022/07/06 10:24:13;;;;;;;1.00;0.60;;;22.10;92.80;;;;;;5068403;28;20447;-62
2022/07/06 10:26:41;;;;;;;1.20;0.80;;;22.20;92.00;;;;;;5071319;28;20444;-60
2022/07/06 10:29:08;;;;;;;1.00;0.73;;;22.30;91.90;;;;;;5070555;28;20452;-61
2022/07/06 10:31:40;;;;;;;4.03;1.00;;;22.30;92.40;;;;;;5072160;28;20451;-62
2022/07/06 10:34:10;;;;;;;2.00;0.70;;;22.50;92.10;;;;;;5074943;28;20447;-60
2022/07/06 10:36:40;;;;;;;0.90;0.73;;;22.60;91.10;;;;;;5075121;28;20450;-60
2022/07/06 10:41:47;;;;;;;2.50;0.90;;;22.40;91.00;;;;;;5074825;28;20501;-59
2022/07/06 10:44:19;;;;;;;3.13;0.60;;;22.40;91.70;;;;;;5074667;28;20471;-59
2022/07/06 10:46:54;;;;;;;2.03;0.80;;;22.40;91.50;;;;;;5074647;28;20490;-60
2022/07/06 10:49:21;;;;;;;0.70;0.60;;;22.60;91.60;;;;;;5074780;28;20526;-60
2022/07/06 10:51:49;;;;;;;0.83;0.60;;;22.60;90.80;;;;;;5062434;28;20822;-60
2022/07/06 10:54:16;;;;;;;1.30;0.80;;;22.60;87.60;;;;;;5071560;28;20451;-60
2022/07/06 10:56:45;;;;;;;1.73;0.63;;;22.60;87.70;;;;;;5074528;28;20475;-60
2022/07/06 10:59:13;;;;;;;0.70;0.70;;;22.70;90.60;;;;;;5072237;28;20482;-59
2022/07/06 11:01:40;;;;;;;1.20;0.77;;;22.80;90.60;;;;;;5066983;28;20452;-59
2022/07/06 11:04:09;;;;;;;1.40;0.80;;;22.90;90.10;;;;;;5063580;28;20457;-59
2022/07/06 11:06:38;;;;;;;1.53;1.00;;;22.90;89.20;;;;;;5073076;28;20966;-60
2022/07/06 11:09:06;;;;;;;1.70;0.70;;;22.90;88.20;;;;;;5073438;28;20814;-59
2022/07/06 11:11:41;;;;;;;1.47;0.73;;;23.10;90.30;;;;;;5072865;28;20447;-60
2022/07/06 11:14:10;;;;;;;3.00;1.00;;;23.30;90.10;;;;;;5068669;28;20529;-60
2022/07/06 11:16:39;;;;;;;1.20;0.70;;;23.50;90.20;;;;;;5066864;28;20534;-63
2022/07/06 11:19:11;;;;;;;0.90;0.63;;;23.60;90.00;;;;;;5056849;28;20824;-62
2022/07/06 11:21:45;;;;;;;1.77;0.70;;;23.60;89.60;;;;;;5072816;28;20483;-61
2022/07/06 11:24:13;;;;;;;3.00;1.10;;;23.40;89.50;;;;;;5054702;28;20480;-59
2022/07/06 11:26:39;;;;;;;2.10;0.70;;;23.20;91.20;;;;;;5066755;28;20953;-59
2022/07/06 11:29:08;;;;;;;1.50;0.90;;;23.40;91.30;;;;;;5077349;28;20837;-60
2022/07/06 11:31:37;;;;;;;1.33;0.80;;;23.40;90.50;;;;;;5073933;28;20452;-60
2022/07/06 11:34:05;;;;;;;0.80;0.70;;;23.40;89.20;;;;;;5073596;28;20826;-61
2022/07/06 11:36:33;;;;;;;1.47;0.80;;;23.40;90.20;;;;;;5073787;28;20802;-63
2022/07/06 11:39:00;;;;;;;0.80;0.70;;;23.60;89.30;;;;;;5064028;28;21065;-61
2022/07/06 11:41:26;;;;;;;1.10;0.80;;;23.80;89.70;;;;;;5072713;28;20834;-60
2022/07/06 11:43:53;;;;;;;1.40;0.90;;;23.90;87.90;;;;;;5069635;28;20974;-59
2022/07/06 11:46:24;;;;;;;1.57;0.70;;;24.00;87.20;;;;;;5072384;28;20440;-59
2022/07/06 11:48:52;;;;;;;2.50;0.70;;;24.10;87.70;;;;;;5071640;28;21057;-62
2022/07/06 11:51:19;;;;;;;1.80;0.70;;;24.30;86.50;;;;;;5073346;28;20538;-64
2022/07/06 11:53:49;;;;;;;0.80;0.70;;;24.30;85.30;;;;;;5073568;28;20451;-60
2022/07/06 11:56:16;;;;;;;3.03;0.80;;;24.20;84.60;;;;;;5073259;28;20879;-59
2022/07/06 11:58:46;;;;;;;2.70;0.80;;;23.90;85.00;;;;;;5073398;28;20447;-59
2022/07/06 12:01:13;;;;;;;1.50;0.70;;;23.70;84.50;;;;;;5066012;28;20455;-60
2022/07/06 12:03:40;;;;;;;2.53;0.90;;;23.40;87.70;;;;;;5066303;28;20453;-59
2022/07/06 12:06:13;;;;;;;2.17;0.80;;;23.00;89.40;;;;;;5066382;28;20526;-59
2022/07/06 12:08:42;;;;;;;1.77;0.77;;;22.80;90.60;;;;;;5073181;28;20448;-60
2022/07/06 12:11:11;;;;;;;1.53;0.70;;;22.60;91.60;;;;;;5072307;28;20448;-59
2022/07/06 12:13:41;;;;;;;2.83;0.97;;;22.60;91.70;;;;;;5070922;28;20888;-61
2022/07/06 12:16:12;;;;;;;3.30;1.63;;;22.70;91.80;;;;;;5072788;28;20851;-60
2022/07/06 12:18:40;;;;;;;4.33;0.83;;;22.70;91.40;;;;;;5068855;28;21072;-61
2022/07/06 12:21:09;;;;;;;1.03;0.70;;;22.70;91.40;;;;;;5072944;28;20476;-61
2022/07/06 12:23:42;;;;;;;1.60;0.70;;;22.90;91.50;;;;;;5070374;28;20455;-61
2022/07/06 12:26:11;;;;;;;2.20;0.80;;;23.00;91.90;;;;;;5068950;28;20479;-60
2022/07/06 12:28:38;;;;;;;1.83;0.70;;;23.40;91.20;;;;;;5072693;28;20436;-61
2022/07/06 12:31:05;;;;;;;2.13;0.93;;;23.60;91.20;;;;;;5071494;28;20954;-61
2022/07/06 12:33:31;;;;;;;2.53;1.10;;;23.60;90.60;;;;;;5082458;28;20790;-61
2022/07/06 12:36:08;;;;;;;1.53;0.70;;;23.50;90.20;;;;;;5074957;28;20535;-62
2022/07/06 12:38:35;;;;;;;1.00;0.70;;;23.50;90.20;;;;;;5071640;28;20941;-56
2022/07/06 12:41:02;;;;;;;2.90;0.80;;;23.70;90.10;;;;;;5071811;28;20462;-57
2022/07/06 12:43:37;;;;;;;0.80;0.60;;;24.00;87.70;;;;;;5069202;28;20451;-61
2022/07/06 12:46:26;;;;;;;1.60;0.73;;;24.00;87.40;;;;;;5072405;28;20504;-60
2022/07/06 12:48:53;;;;;;;1.33;0.90;;;23.90;87.00;;;;;;5071774;28;20989;-61
2022/07/06 12:51:20;;;;;;;2.73;1.13;;;24.00;87.80;;;;;;5076424;28;20453;-61
2022/07/06 12:53:46;;;;;;;6.13;1.17;;;23.80;86.80;;;;;;5084999;28;20464;-62
2022/07/06 12:56:13;;;;;;;0.93;0.60;;;23.60;86.50;;;;;;5069034;28;20565;-60
2022/07/06 12:58:58;;;;;;;1.00;0.70;;;23.70;84.20;;;;;;5072091;28;20960;-61